< < Back
Terminal Aerodrome Forecast


Current Version              Previous Versions:   1  2  3  4  5  6  7  8  9  

Terminal Aerodrome Forecast

579
FTUS44 KBMX 201547 AAA
TAFTCL
TAF AMD
KTCL 201547Z 2016/2112 25012G18KT P6SM SCT025 SCT040
      TEMPO 2016/2020 BKN025
     FM202000 29015G25KT P6SM SCT025 BKN050
     FM210000 30010KT P6SM SKC
     FM210300 28002KT P6SM SKC=

Latest METAR

669
SAUS70 KWBC 210500
MTRTCL
METAR KTCL 210453Z AUTO 30004KT 10SM CLR 13/08 A2998 RMK AO2 SLP148
T01280083


USA.gov is the U.S. government's official web portal to all federal, state and local government web resources and services.